createdAt,value
2023-04-28T04:35:19.003Z,20.6378
2023-04-28T04:36:13.582Z,21.3462
2023-04-28T04:39:34.031Z,21.2792
2023-04-28T04:50:49.665Z,21.0021
2023-04-28T05:10:06.738Z,20.4669
2023-04-28T06:17:26.252Z,21.8791
2023-04-28T10:37:14.071Z,19.8498
2023-04-28T10:38:08.304Z,19.6419
2023-04-28T10:39:10.106Z,18.5508
2023-04-28T10:40:11.941Z,17.9711
2023-04-28T10:41:13.777Z,17.7460
2023-04-28T10:42:15.627Z,17.7392
2023-04-28T10:43:17.460Z,17.7953
2023-04-28T10:44:19.299Z,17.9046
2023-04-28T10:45:21.153Z,17.9510
2023-04-28T10:46:23.144Z,18.0052
2023-04-28T10:47:24.852Z,18.0993
2023-04-28T10:48:26.697Z,18.2047
2023-04-28T10:49:28.507Z,18.3134
2023-04-28T10:50:39.112Z,18.3331
2023-04-28T10:51:33.211Z,18.0907
2023-04-28T10:52:34.045Z,17.7863
2023-04-28T10:53:35.880Z,17.6199
2023-04-28T10:54:37.700Z,17.6135
2023-04-28T10:55:39.565Z,17.7191
2023-04-28T10:56:42.155Z,17.8249
2023-04-28T10:57:43.215Z,17.9105
2023-04-28T10:58:45.063Z,17.8309
2023-04-28T10:59:46.888Z,17.7413
2023-04-28T11:00:48.745Z,17.7871
2023-04-28T11:01:50.686Z,17.8760
2023-04-28T11:02:52.543Z,17.9777
2023-04-28T11:03:54.649Z,18.0667
2023-04-28T11:04:56.181Z,17.9504
2023-04-28T11:05:57.928Z,17.7421
2023-04-28T11:06:59.749Z,17.6618
2023-04-28T11:08:01.604Z,17.7049
2023-04-28T11:09:03.438Z,17.7965
2023-04-28T11:10:05.273Z,17.9017
2023-04-28T11:11:07.126Z,17.9601
2023-04-28T11:12:08.953Z,17.7902
2023-04-28T11:13:10.784Z,17.6733
2023-04-28T11:14:12.631Z,17.7177
2023-04-28T11:15:14.463Z,17.8070
2023-04-28T11:16:16.320Z,17.9623
2023-04-28T11:17:18.133Z,18.1560
2023-04-28T11:18:19.984Z,18.0486
2023-04-28T11:19:21.818Z,17.7649
2023-04-28T11:20:23.690Z,17.6680
2023-04-28T11:21:25.497Z,17.7208
2023-04-28T11:22:27.346Z,17.8157
2023-04-28T11:23:29.457Z,17.8925
2023-04-28T11:24:31.036Z,17.9449
2023-04-28T11:25:32.854Z,17.8165
2023-04-28T11:26:34.702Z,17.7682
2023-04-28T11:27:36.553Z,17.7935
2023-04-28T11:28:38.376Z,17.8571
2023-04-28T11:29:40.225Z,17.9331
2023-04-28T11:30:42.055Z,18.0344
2023-04-28T11:31:43.913Z,17.9108
2023-04-28T11:32:45.775Z,17.7021
2023-04-28T11:33:47.603Z,17.6947
2023-04-28T11:34:49.412Z,17.7546
2023-04-28T11:35:51.272Z,17.8436
2023-04-28T11:36:54.769Z,17.9387
2023-04-28T11:37:54.963Z,17.9021
2023-04-28T11:38:56.786Z,17.7277
2023-04-28T11:39:58.665Z,17.6885
2023-04-28T11:41:00.451Z,17.7509
2023-04-28T11:42:02.459Z,17.8506
2023-04-28T11:43:04.139Z,17.9545
2023-04-28T11:44:05.989Z,18.0106
2023-04-28T11:45:07.824Z,17.8662
2023-04-28T11:46:09.742Z,17.7113
2023-04-28T11:47:11.489Z,17.7491
2023-04-28T11:48:13.351Z,17.8122
2023-04-28T11:49:15.187Z,17.8900
2023-04-28T11:50:17.005Z,17.9753
2023-04-28T11:51:18.868Z,17.9163
2023-04-28T11:52:20.702Z,17.7162
2023-04-28T11:53:23.788Z,17.6815
2023-04-28T11:54:24.397Z,17.7742
2023-04-28T11:55:26.235Z,17.8571
2023-04-28T11:56:28.078Z,17.9792
2023-04-28T11:57:29.928Z,17.9958
2023-04-28T11:58:31.758Z,17.8019
2023-04-28T11:59:33.610Z,17.6569
2023-04-28T12:00:35.433Z,17.6737
2023-04-28T12:01:37.290Z,17.7431
2023-04-28T12:02:39.193Z,17.8230
2023-04-28T12:03:41.096Z,17.9235
2023-04-28T12:04:42.818Z,17.8586
2023-04-28T12:05:44.715Z,17.8074
2023-04-28T12:06:46.485Z,17.8403
2023-04-28T12:07:48.338Z,17.9276
2023-04-28T12:08:50.162Z,18.0157
2023-04-28T12:09:52.013Z,18.1184
2023-04-28T12:10:53.859Z,17.9625
2023-04-28T12:11:55.693Z,17.7392
2023-04-28T12:12:57.517Z,17.6813
2023-04-28T12:13:59.372Z,17.7179
2023-04-28T12:15:01.213Z,17.7961
2023-04-28T12:16:03.075Z,17.9159
2023-04-28T12:17:04.892Z,17.9276
2023-04-28T12:18:06.745Z,17.8062
2023-04-28T12:19:08.580Z,17.7816
2023-04-28T12:20:10.417Z,17.8481
2023-04-28T12:21:12.265Z,17.9066
2023-04-28T12:22:14.097Z,17.9896
2023-04-28T12:23:15.964Z,18.0500
2023-04-28T12:24:17.782Z,17.8561
2023-04-28T12:25:19.653Z,17.6869
2023-04-28T12:26:21.460Z,17.6875
2023-04-28T12:27:23.317Z,17.7920
2023-04-28T12:28:25.156Z,17.8713
2023-04-28T12:29:27.012Z,17.9483
2023-04-28T12:30:28.845Z,17.8693
2023-04-28T12:31:30.701Z,17.7197
2023-04-28T12:32:32.535Z,17.6899
2023-04-28T12:33:34.356Z,17.7466
2023-04-28T12:34:36.219Z,17.8175
2023-04-28T12:35:38.062Z,17.9319
2023-04-28T12:36:39.877Z,17.9331
2023-04-28T12:37:41.738Z,17.7520
2023-04-28T12:38:43.567Z,17.6786
2023-04-28T12:39:45.927Z,17.7458
2023-04-28T12:40:47.237Z,17.8537
2023-04-28T12:41:49.110Z,17.9327
2023-04-28T12:42:50.919Z,18.0067
2023-04-28T12:43:52.765Z,17.8740
2023-04-28T12:44:54.602Z,17.6899
2023-04-28T12:45:56.495Z,17.6793
2023-04-28T12:46:58.281Z,17.7561
2023-04-28T12:48:00.170Z,17.8672
2023-04-28T12:49:01.974Z,17.9559
2023-04-28T12:50:03.791Z,17.9009
2023-04-28T12:51:05.618Z,17.7218
2023-04-28T12:52:07.481Z,17.6869
2023-04-28T12:53:09.295Z,17.7479
2023-04-28T12:54:11.161Z,17.8495
2023-04-28T12:55:12.996Z,17.9703
2023-04-28T12:56:14.833Z,17.9890
2023-04-28T12:57:16.660Z,17.8066
2023-04-28T12:58:18.510Z,17.6873
2023-04-28T12:59:20.349Z,17.7142
2023-04-28T13:00:22.201Z,17.7680
2023-04-28T13:01:24.178Z,17.8452
2023-04-28T13:02:26.162Z,17.9247
2023-04-28T13:03:27.903Z,17.8801
2023-04-28T13:04:30.008Z,17.8321
2023-04-28T13:05:31.388Z,17.8302
2023-04-28T13:06:33.236Z,17.8822
2023-04-28T13:07:35.049Z,17.9568
2023-04-28T13:08:36.906Z,18.0280
2023-04-28T13:09:38.751Z,17.9118
2023-04-28T13:10:40.585Z,17.7253
2023-04-28T13:11:42.439Z,17.7037
2023-04-28T13:12:44.282Z,17.7645
2023-04-28T13:13:46.093Z,17.8409
2023-04-28T13:14:47.965Z,17.9140
2023-04-28T13:15:49.791Z,17.9206
2023-04-28T13:16:51.621Z,17.7696
2023-04-28T13:17:53.487Z,17.7637
2023-04-28T13:18:55.292Z,17.8286
2023-04-28T13:19:57.115Z,17.9108
2023-04-28T13:20:58.969Z,18.0077
2023-04-28T13:22:00.808Z,18.0385
2023-04-28T13:23:02.632Z,17.8424
2023-04-28T13:24:04.490Z,17.6949
2023-04-28T13:25:06.333Z,17.7103
2023-04-28T13:26:08.165Z,17.7947
2023-04-28T13:27:10.470Z,17.8777
2023-04-28T13:28:11.834Z,17.9562
2023-04-28T13:29:13.656Z,17.8931
2023-04-28T13:30:15.540Z,17.7602
2023-04-28T13:31:17.349Z,17.7546
2023-04-28T13:32:19.185Z,17.8132
2023-04-28T13:33:21.087Z,17.9069
2023-04-28T13:34:22.864Z,17.9960
2023-04-28T13:35:24.690Z,17.9826
2023-04-28T13:36:26.529Z,17.7976
2023-04-28T13:37:28.388Z,17.7516
2023-04-28T13:38:30.206Z,17.7855
2023-04-28T13:39:32.057Z,17.8783
2023-04-28T13:40:33.887Z,17.9605
2023-04-28T13:41:35.734Z,17.9835
2023-04-28T13:42:37.564Z,17.8220
2023-04-28T13:43:39.418Z,17.7236
2023-04-28T13:44:41.246Z,17.7456
2023-04-28T13:45:43.125Z,17.8278
2023-04-28T13:46:44.915Z,17.9093
2023-04-28T13:47:46.781Z,17.9948
2023-04-28T13:48:48.612Z,17.8799
2023-04-28T13:49:50.449Z,17.7475
2023-04-28T13:50:52.305Z,17.7421
2023-04-28T13:51:54.109Z,17.8029
2023-04-28T13:52:55.963Z,17.8783
2023-04-28T13:53:57.786Z,17.9771
2023-04-28T13:54:59.639Z,17.9192
2023-04-28T13:56:01.488Z,17.7744
2023-04-28T13:57:03.325Z,17.8966
2023-04-28T13:58:05.155Z,18.2242
2023-04-28T13:59:06.971Z,18.3362
2023-04-28T14:00:08.839Z,18.3789
2023-04-28T14:01:10.724Z,18.5013
2023-04-28T14:02:12.558Z,18.5393
2023-04-28T14:03:14.469Z,18.4986
2023-04-28T14:04:16.366Z,18.5356
2023-04-28T14:05:18.022Z,18.5964
2023-04-28T14:06:19.879Z,18.6219
2023-04-28T14:07:21.695Z,18.5859
2023-04-28T14:08:23.881Z,18.6075
2023-04-28T14:09:25.406Z,18.5892
2023-04-28T14:10:27.223Z,18.5502
2023-04-28T14:11:29.064Z,18.4793
2023-04-28T14:12:30.893Z,18.5393
2023-04-28T14:13:32.766Z,18.5494
2023-04-28T14:14:34.570Z,18.5453
2023-04-28T14:15:37.200Z,18.4912
2023-04-28T14:16:38.276Z,18.5034
2023-04-28T14:17:40.088Z,18.5568
2023-04-28T14:18:41.937Z,18.5818
2023-04-28T14:19:43.760Z,18.5500
2023-04-28T14:20:45.647Z,18.5411
2023-04-28T14:21:47.432Z,18.5360
2023-04-28T14:22:49.278Z,18.5514
2023-04-28T14:23:51.113Z,18.5568
2023-04-28T14:24:52.954Z,18.3571
2023-04-28T14:25:55.722Z,17.9642
2023-04-28T14:26:56.630Z,17.5766
2023-04-28T14:27:58.452Z,17.4681
2023-04-28T14:29:00.329Z,17.5201
2023-04-28T14:30:02.152Z,17.6326
2023-04-28T14:31:03.987Z,17.7497
2023-04-28T14:32:05.816Z,17.8315
2023-04-28T14:33:07.661Z,17.8331
2023-04-28T14:34:09.500Z,17.8966
2023-04-28T14:35:11.332Z,17.9913
2023-04-28T14:36:13.181Z,18.0817
2023-04-28T14:37:15.064Z,18.1640
2023-04-28T14:38:16.848Z,18.0794
2023-04-28T14:39:18.682Z,17.8311
2023-04-28T14:40:20.589Z,17.6743
2023-04-28T14:41:22.449Z,17.6772
2023-04-28T14:42:24.293Z,17.7598
2023-04-28T14:43:26.125Z,17.8495
2023-04-28T14:44:27.950Z,17.9327
2023-04-28T14:45:29.808Z,17.8738
2023-04-28T14:46:31.735Z,17.7345
2023-04-28T14:47:33.522Z,17.7401
2023-04-28T14:48:35.340Z,17.8163
2023-04-28T14:49:37.158Z,17.9155
2023-04-28T14:50:39.011Z,18.0202
2023-04-28T14:51:40.835Z,18.0013
2023-04-28T14:52:42.732Z,17.8159
2023-04-28T14:53:44.515Z,17.7296
2023-04-28T14:54:46.627Z,17.7571
2023-04-28T14:55:48.206Z,17.8126
2023-04-28T14:56:50.062Z,17.8865
2023-04-28T14:57:51.900Z,17.9574
2023-04-28T14:58:53.726Z,17.7970
2023-04-28T14:59:55.588Z,17.6721
2023-04-28T15:00:57.430Z,17.7187
2023-04-28T15:01:59.293Z,17.8000
2023-04-28T15:03:01.241Z,17.9019
2023-04-28T15:04:03.133Z,17.9931
2023-04-28T15:05:04.892Z,17.9155
2023-04-28T15:06:06.629Z,17.7070
2023-04-28T15:07:08.468Z,17.6378
2023-04-28T15:08:10.295Z,17.6883
2023-04-28T15:09:12.147Z,17.7701
2023-04-28T15:10:13.992Z,17.8725
2023-04-28T15:11:15.812Z,17.9253
2023-04-28T15:12:17.672Z,17.7855
2023-04-28T15:13:19.498Z,17.7002
2023-04-28T15:14:21.347Z,17.7216
2023-04-28T15:15:23.171Z,17.7853
2023-04-28T15:16:25.070Z,17.8619
2023-04-28T15:17:26.877Z,17.9559
2023-04-28T15:18:28.694Z,17.8783
2023-04-28T15:19:30.541Z,17.7723
2023-04-28T15:20:32.376Z,17.7855
2023-04-28T15:21:34.235Z,17.8405
2023-04-28T15:22:36.061Z,17.9346
2023-04-28T15:23:37.891Z,18.0245
2023-04-28T15:24:39.750Z,17.9549
2023-04-28T15:25:41.574Z,17.7501
2023-04-28T15:26:43.428Z,17.6786
2023-04-28T15:27:45.256Z,17.7179
2023-04-28T15:28:47.105Z,17.8136
2023-04-28T15:29:48.933Z,17.8972
2023-04-28T15:30:50.780Z,17.9446
2023-04-28T15:31:52.829Z,17.8255
2023-04-28T15:32:54.492Z,17.7475
2023-04-28T15:33:56.309Z,17.7994
2023-04-28T15:34:58.133Z,17.8904
2023-04-28T15:35:59.988Z,18.0044
2023-04-28T15:37:01.835Z,18.0753
2023-04-28T15:38:03.677Z,17.9196
2023-04-28T15:39:05.497Z,17.6988
2023-04-28T15:40:07.342Z,17.6698
2023-04-28T15:41:09.183Z,17.7142
2023-04-28T15:42:11.011Z,17.7828
2023-04-28T15:43:12.862Z,17.8639
2023-04-28T15:44:14.690Z,17.8730
2023-04-28T15:45:16.525Z,17.8311
2023-04-28T15:46:18.387Z,17.8323
2023-04-28T15:47:20.221Z,17.8758
2023-04-28T15:48:22.029Z,17.9512
2023-04-28T15:49:23.877Z,18.0574
2023-04-28T15:50:25.727Z,18.0028
2023-04-28T15:51:27.542Z,17.7844
2023-04-28T15:52:29.405Z,17.7261
2023-04-28T15:53:31.239Z,17.7214
2023-04-28T15:54:33.067Z,17.7793
2023-04-28T15:55:34.922Z,17.8740
2023-04-28T15:56:36.763Z,17.9477
2023-04-28T15:57:38.606Z,17.7947
2023-04-28T15:58:40.437Z,17.7450
2023-04-28T15:59:42.288Z,17.7844
2023-04-28T16:00:44.179Z,17.8413
2023-04-28T16:01:45.964Z,17.9426
2023-04-28T16:02:47.963Z,18.0114
2023-04-28T16:03:49.740Z,17.8966
2023-04-28T16:04:51.843Z,17.7397
2023-04-28T16:05:53.318Z,17.7536
2023-04-28T16:06:55.153Z,17.8253
2023-04-28T16:07:57.004Z,17.9181
2023-04-28T16:08:58.851Z,17.9913
2023-04-28T16:10:00.703Z,17.9420
2023-04-28T16:11:02.558Z,17.7641
2023-04-28T16:12:04.423Z,17.7113
2023-04-28T16:13:06.222Z,17.7555
2023-04-28T16:14:08.062Z,17.8163
2023-04-28T16:15:09.964Z,17.9044
2023-04-28T16:16:12.138Z,17.9054
2023-04-28T16:17:13.592Z,17.7682
2023-04-28T16:18:15.541Z,17.7409
2023-04-28T16:19:17.265Z,17.8120
2023-04-28T16:20:19.112Z,17.8968
2023-04-28T16:21:20.944Z,17.9952
2023-04-28T16:22:22.806Z,18.0001
2023-04-28T16:23:24.634Z,17.8329
2023-04-28T16:24:26.482Z,17.7218
2023-04-28T16:25:28.305Z,17.7339
2023-04-28T16:26:30.157Z,17.7994
2023-04-28T16:27:32.035Z,17.8945
2023-04-28T16:28:33.850Z,17.9677
2023-04-28T16:29:35.688Z,17.8397
2023-04-28T16:30:37.514Z,17.7479
2023-04-28T16:31:39.376Z,17.7462
2023-04-28T16:32:41.231Z,17.7910
2023-04-28T16:33:43.064Z,17.8836
2023-04-28T16:34:44.876Z,17.9876
2023-04-28T16:35:46.737Z,17.9173
2023-04-28T16:36:48.570Z,17.7427
2023-04-28T16:37:50.422Z,17.7012
2023-04-28T16:38:52.257Z,17.7397
2023-04-28T16:39:54.215Z,17.8331
2023-04-28T16:40:55.940Z,17.9358
2023-04-28T16:41:57.798Z,17.9820
2023-04-28T16:42:59.621Z,17.8050
2023-04-28T16:44:01.683Z,17.7210
2023-04-28T16:45:03.303Z,17.7770
2023-04-28T16:46:05.240Z,17.8615
2023-04-28T16:47:06.996Z,17.9551
2023-04-28T16:48:08.823Z,18.0046
2023-04-28T16:49:10.683Z,17.8370
2023-04-28T16:50:12.505Z,17.6768
2023-04-28T16:51:14.362Z,17.7021
2023-04-28T16:52:16.201Z,17.7618
2023-04-28T16:53:18.047Z,17.8463
2023-04-28T16:54:19.885Z,17.9459
2023-04-28T16:55:21.729Z,17.9089
2023-04-28T16:56:23.569Z,17.7873
2023-04-28T16:57:25.421Z,17.7826
2023-04-28T16:58:27.257Z,17.8081
2023-04-28T16:59:29.098Z,17.9054
2023-04-28T17:00:30.930Z,17.9872
2023-04-28T17:01:32.801Z,17.9485
2023-04-28T17:02:34.830Z,17.7857
2023-04-28T17:03:36.593Z,17.7409
2023-04-28T17:04:38.453Z,17.7965
2023-04-28T17:05:40.126Z,17.9064
2023-04-28T17:06:41.974Z,17.9880
2023-04-28T17:07:43.812Z,18.0217
2023-04-28T17:08:45.661Z,17.8288
2023-04-28T17:09:47.484Z,17.6756
2023-04-28T17:10:49.334Z,17.6840
2023-04-28T17:11:51.181Z,17.7688
2023-04-28T17:12:53.030Z,17.8728
2023-04-28T17:13:54.879Z,17.9385
2023-04-28T17:14:56.692Z,17.8898
2023-04-28T17:15:58.592Z,17.7035
2023-04-28T17:17:00.390Z,17.6791
2023-04-28T17:18:02.285Z,17.7512
2023-04-28T17:19:05.078Z,17.8350
2023-04-28T17:20:05.917Z,17.9165
2023-04-28T17:21:07.751Z,17.9163
2023-04-28T17:22:09.604Z,17.7696
2023-04-28T17:23:11.436Z,17.7401
2023-04-28T17:24:13.297Z,17.7670
2023-04-28T17:25:15.118Z,17.8385
2023-04-28T17:26:16.976Z,17.9075
2023-04-28T17:27:18.802Z,17.9342
2023-04-28T17:28:20.661Z,17.7875
2023-04-28T17:29:22.509Z,17.7253
2023-04-28T17:30:24.356Z,17.7760
2023-04-28T17:31:26.207Z,17.8725
2023-04-28T17:32:28.076Z,17.9590
2023-04-28T17:33:29.865Z,18.0469
2023-04-28T17:34:31.713Z,17.8939
2023-04-28T17:35:33.540Z,17.7302
2023-04-28T17:36:35.387Z,17.6862
2023-04-28T17:37:37.263Z,17.7368
2023-04-28T17:38:39.070Z,17.8407
2023-04-28T17:39:40.908Z,17.9360
2023-04-28T17:40:42.751Z,17.9085
2023-04-28T17:41:44.576Z,17.7485
2023-04-28T17:42:46.425Z,17.7446
2023-04-28T17:43:48.247Z,17.8167
2023-04-28T17:44:50.332Z,17.9163
2023-04-28T17:45:51.937Z,18.0067
2023-04-28T17:46:53.818Z,18.0190
2023-04-28T17:47:55.709Z,17.7970
2023-04-28T17:48:57.481Z,17.7053
2023-04-28T17:49:59.303Z,17.7362
2023-04-28T17:51:01.148Z,17.8007
2023-04-28T17:52:02.983Z,17.9066
2023-04-28T17:53:04.828Z,17.9874
2023-04-28T17:54:06.665Z,17.8594
2023-04-28T17:55:08.499Z,17.7088
2023-04-28T17:56:10.350Z,17.7306
2023-04-28T17:57:12.175Z,17.8044
2023-04-28T17:58:14.028Z,17.8988
2023-04-28T17:59:15.867Z,18.0001
2023-04-28T18:00:17.713Z,17.9130
2023-04-28T18:01:19.715Z,17.7452
2023-04-28T18:02:21.437Z,17.7097
2023-04-28T18:03:23.304Z,17.7692
2023-04-28T18:04:25.068Z,17.8617
2023-04-28T18:05:26.920Z,17.9490
2023-04-28T18:06:28.785Z,17.9800
2023-04-28T18:07:30.573Z,17.8011
2023-04-28T18:08:32.433Z,17.7125
2023-04-28T18:09:34.263Z,17.7462
2023-04-28T18:10:36.114Z,17.8325
2023-04-28T18:11:37.961Z,17.9469
2023-04-28T18:12:39.786Z,18.0071
2023-04-28T18:13:41.648Z,17.8695
2023-04-28T18:14:43.476Z,17.7316
2023-04-28T18:15:45.300Z,17.7304
2023-04-28T18:16:47.204Z,17.7941
2023-04-28T18:17:48.994Z,17.8841
2023-04-28T18:18:50.845Z,17.9625
2023-04-28T18:19:52.657Z,17.8933
2023-04-28T18:20:54.668Z,17.8208
2023-04-28T18:21:56.339Z,17.8311
2023-04-28T18:22:58.191Z,17.8900
2023-04-28T18:24:00.033Z,17.9672
2023-04-28T18:25:02.179Z,18.0426
2023-04-28T18:26:03.732Z,17.9401
2023-04-28T18:27:05.557Z,17.7261
2023-04-28T18:28:07.383Z,17.6998
2023-04-28T18:29:09.224Z,17.7641
2023-04-28T18:30:11.077Z,17.8551
2023-04-28T18:31:12.950Z,17.9455
2023-04-28T18:32:15.223Z,17.9650
2023-04-28T18:33:16.593Z,17.8103
2023-04-28T18:34:18.432Z,17.7386
2023-04-28T18:35:20.278Z,17.7885
2023-04-28T18:36:22.113Z,17.8797
2023-04-28T18:37:23.955Z,17.9874
2023-04-28T18:38:25.778Z,18.0377
2023-04-28T18:40:29.478Z,17.6910
2023-04-28T18:41:31.323Z,17.6762
2023-04-28T18:42:33.151Z,17.7148
2023-04-28T18:43:35.066Z,17.7857
2023-04-28T18:44:36.930Z,17.8980
2023-04-28T18:45:38.769Z,17.9214
2023-04-28T18:46:40.581Z,17.7625
2023-04-28T18:47:42.473Z,17.7542
2023-04-28T18:48:44.281Z,17.8278
2023-04-28T18:49:46.124Z,17.8929
2023-04-28T18:50:47.973Z,17.9919
2023-04-28T18:51:49.805Z,17.9798
2023-04-28T18:52:51.637Z,17.7737
2023-04-28T18:53:53.485Z,17.6801
2023-04-28T18:54:55.320Z,17.7323
2023-04-28T18:55:57.166Z,17.8208
2023-04-28T18:56:58.988Z,17.9114
2023-04-28T18:58:00.844Z,17.9835
2023-04-28T18:59:02.673Z,17.8797
2023-04-28T19:00:04.530Z,17.7528
2023-04-28T19:01:06.385Z,17.7655
2023-04-28T19:02:08.187Z,17.8122
2023-04-28T19:03:10.092Z,17.8693
2023-04-28T19:04:12.214Z,17.9695
2023-04-28T19:05:13.710Z,17.9087
2023-04-28T19:06:15.573Z,17.7452
2023-04-28T19:07:17.398Z,17.7148
2023-04-28T19:08:19.251Z,17.7822
2023-04-28T19:09:21.084Z,17.8717
2023-04-28T19:10:23.030Z,17.9681
2023-04-28T19:11:24.762Z,17.9822
2023-04-28T19:12:26.627Z,17.7970
2023-04-28T19:13:28.448Z,17.7002
2023-04-28T19:14:30.286Z,17.7446
2023-04-28T19:15:32.108Z,17.8327
2023-04-28T19:16:34.027Z,17.9233
2023-04-28T19:17:35.800Z,17.9820
2023-04-28T19:18:37.643Z,17.8834
2023-04-28T19:19:39.486Z,17.7082
2023-04-28T19:20:41.308Z,17.6821
2023-04-28T19:21:43.165Z,17.7649
2023-04-28T19:22:44.988Z,17.8742
2023-04-28T19:23:46.826Z,17.9792
2023-04-28T19:24:48.653Z,17.9453
2023-04-28T19:25:50.553Z,17.7594
2023-04-28T19:26:52.339Z,17.6945
2023-04-28T19:27:54.189Z,17.7384
2023-04-28T19:28:56.018Z,17.8504
2023-04-28T19:29:57.855Z,17.9720
2023-04-28T19:30:59.709Z,18.0089
2023-04-28T19:32:01.537Z,17.8331
2023-04-28T19:33:03.413Z,17.6614
2023-04-28T19:34:05.209Z,17.6608
2023-04-28T19:35:07.074Z,17.7300
2023-04-28T19:36:08.901Z,17.8245
2023-04-28T19:37:10.733Z,17.9052
2023-04-28T19:38:12.603Z,17.8637
2023-04-28T19:39:14.414Z,17.7288
2023-04-28T19:40:16.268Z,17.7549
2023-04-28T19:41:18.092Z,17.8333
2023-04-28T19:42:19.962Z,17.9358
2023-04-28T19:43:21.771Z,18.0301
2023-04-28T19:44:23.633Z,17.9939
2023-04-28T19:45:25.451Z,17.7811
2023-04-28T19:46:27.334Z,17.6713
2023-04-28T19:47:29.156Z,17.7023
2023-04-28T19:48:31.006Z,17.7740
2023-04-28T19:49:32.809Z,17.8522
2023-04-28T19:50:34.661Z,17.9221
2023-04-28T19:51:36.484Z,17.8062
2023-04-28T19:52:38.348Z,17.7419
2023-04-28T19:53:40.173Z,17.7846
2023-04-28T19:54:42.032Z,17.8779
2023-04-28T19:55:43.856Z,17.9716
2023-04-28T19:56:45.729Z,18.0225
2023-04-28T19:57:47.547Z,17.8730
2023-04-28T19:58:49.405Z,17.6897
2023-04-28T19:59:51.414Z,17.6454
2023-04-28T20:00:53.088Z,17.7216
2023-04-28T20:01:54.928Z,17.8035
2023-04-28T20:02:56.888Z,17.9017
2023-04-28T20:03:58.741Z,17.9208
2023-04-28T20:05:00.448Z,17.7803
2023-04-28T20:06:02.285Z,17.7637
2023-04-28T20:07:04.124Z,17.8132
2023-04-28T20:08:05.998Z,17.8740
2023-04-28T20:09:07.823Z,17.9475
2023-04-28T20:10:09.677Z,17.9917
2023-04-28T20:11:11.505Z,17.7943
2023-04-28T20:12:13.342Z,17.6741
2023-04-28T20:13:15.206Z,17.7051
2023-04-28T20:14:17.029Z,17.8115
2023-04-28T20:15:18.897Z,17.9062
2023-04-28T20:16:20.767Z,17.9808
2023-04-28T20:17:22.607Z,17.8732
2023-04-28T20:18:24.412Z,17.6891
2023-04-28T20:19:26.277Z,17.6688
2023-04-28T20:20:28.104Z,17.7349
2023-04-28T20:21:29.947Z,17.8315
2023-04-28T20:22:31.793Z,17.9292
2023-04-28T20:23:33.616Z,17.9173
2023-04-28T20:24:35.554Z,17.7479
2023-04-28T20:25:37.297Z,17.6959
2023-04-28T20:26:39.150Z,17.7271
2023-04-28T20:27:41.002Z,17.8025
2023-04-28T20:28:42.821Z,17.8843
2023-04-28T20:29:44.674Z,17.9510
2023-04-28T20:30:46.503Z,17.8054
2023-04-28T20:31:48.567Z,17.6803
2023-04-28T20:32:50.282Z,17.7234
2023-04-28T20:33:52.046Z,17.8021
2023-04-28T20:34:53.893Z,17.9118
2023-04-28T20:35:55.718Z,18.0079
2023-04-28T20:36:57.582Z,17.9165
2023-04-28T20:37:59.410Z,17.7068
2023-04-28T20:39:01.268Z,17.6610
2023-04-28T20:40:03.101Z,17.7462
2023-04-28T20:41:04.953Z,17.8222
2023-04-28T20:42:06.790Z,17.9142
2023-04-28T20:43:08.657Z,17.9313
2023-04-28T20:44:10.478Z,17.7666
2023-04-28T20:45:12.334Z,17.7357
2023-04-28T20:46:14.207Z,17.7842
2023-04-28T20:47:16.023Z,17.8709
2023-04-28T20:48:17.849Z,17.9520
2023-04-28T20:49:19.702Z,17.9859
2023-04-28T20:50:21.533Z,17.8265
2023-04-28T20:51:23.378Z,17.7068
2023-04-28T20:52:25.214Z,17.7427
2023-04-28T20:53:27.071Z,17.8146
2023-04-28T20:54:28.883Z,17.8871
2023-04-28T20:55:30.731Z,17.9586
2023-04-28T20:56:32.559Z,17.8615
2023-04-28T20:57:34.409Z,17.6908
2023-04-28T20:58:36.247Z,17.6973
2023-04-28T20:59:38.111Z,17.7659
2023-04-28T21:00:39.968Z,17.8590
2023-04-28T21:01:41.864Z,17.9253
2023-04-28T21:02:43.783Z,17.9075
2023-04-28T21:03:45.594Z,17.7622
2023-04-28T21:04:47.339Z,17.7216
2023-04-28T21:05:49.151Z,17.7637
2023-04-28T21:06:50.973Z,17.8206
2023-04-28T21:07:52.826Z,17.9048
2023-04-28T21:08:54.663Z,17.9221
2023-04-28T21:09:56.513Z,17.7842
2023-04-28T21:10:58.371Z,17.7444
2023-04-28T21:12:00.210Z,17.8146
2023-04-28T21:13:02.024Z,17.9153
2023-04-28T21:14:03.866Z,18.0204
2023-04-28T21:15:05.717Z,18.0584
2023-04-28T21:16:07.592Z,17.8689
2023-04-28T21:17:09.401Z,17.7045
2023-04-28T21:18:11.260Z,17.7442
2023-04-28T21:19:13.090Z,17.8173
2023-04-28T21:20:14.968Z,17.9108
2023-04-28T21:21:16.765Z,17.9816
2023-04-28T21:22:18.603Z,17.9323
2023-04-28T21:23:20.450Z,17.7214
2023-04-28T21:24:22.276Z,17.6834
2023-04-28T21:25:24.142Z,17.7401
2023-04-28T21:26:25.953Z,17.8313
2023-04-28T21:27:27.811Z,17.9387
2023-04-28T21:28:29.650Z,17.9044
2023-04-28T21:29:31.488Z,17.7514
2023-04-28T21:30:33.323Z,17.7306
2023-04-28T21:31:35.208Z,17.8017
2023-04-28T21:32:37.053Z,17.9007
2023-04-28T21:33:38.859Z,17.9929
2023-04-28T21:34:40.704Z,18.0225
2023-04-28T21:35:42.544Z,17.8163
2023-04-28T21:36:44.377Z,17.6417
2023-04-28T21:37:46.235Z,17.6404
2023-04-28T21:38:48.056Z,17.7696
2023-04-28T21:39:50.002Z,17.8610
2023-04-28T21:40:51.794Z,17.9824
2023-04-28T21:41:53.590Z,17.8843
2023-04-28T21:42:55.432Z,17.7197
2023-04-28T21:43:57.259Z,17.7210
2023-04-28T21:44:59.108Z,17.7713
2023-04-28T21:46:00.974Z,17.8461
2023-04-28T21:47:02.811Z,17.9387
2023-04-28T21:48:04.703Z,17.9303
2023-04-28T21:49:06.457Z,17.7429
2023-04-28T21:50:08.304Z,17.6715
2023-04-28T21:51:10.141Z,17.7226
2023-04-28T21:52:11.992Z,17.8177
2023-04-28T21:53:13.813Z,17.9247
2023-04-28T21:54:15.647Z,18.0252
2023-04-28T21:55:17.496Z,17.9036
2023-04-28T21:56:19.324Z,17.7006
2023-04-28T21:57:21.178Z,17.6770
2023-04-28T21:58:23.010Z,17.7536
2023-04-28T21:59:24.886Z,17.8391
2023-04-28T22:00:26.678Z,17.9112
2023-04-28T22:01:28.578Z,17.8742
2023-04-28T22:02:30.452Z,17.7588
2023-04-28T22:03:32.330Z,17.7534
2023-04-28T22:04:34.096Z,17.8286
2023-04-28T22:05:35.908Z,17.9085
2023-04-28T22:06:37.715Z,18.0167
2023-04-28T22:07:39.593Z,18.0295
2023-04-28T22:08:41.392Z,17.8292
2023-04-28T22:09:43.231Z,17.6801
2023-04-28T22:10:45.084Z,17.6671
2023-04-28T22:11:46.930Z,17.7524
2023-04-28T22:12:48.752Z,17.8863
2023-04-28T22:13:50.580Z,17.9779
2023-04-28T22:14:52.434Z,17.9021
2023-04-28T22:15:54.263Z,17.8140
2023-04-28T22:16:56.106Z,17.8070
2023-04-28T22:17:57.986Z,17.8352
2023-04-28T22:18:59.784Z,17.9032
2023-04-28T22:20:01.629Z,17.9913
2023-04-28T22:21:03.457Z,17.9077
2023-04-28T22:22:05.293Z,17.7257
2023-04-28T22:23:07.137Z,17.6940
2023-04-28T22:24:08.989Z,17.7596
2023-04-28T22:25:10.807Z,17.8520
2023-04-28T22:26:12.679Z,17.9432
2023-04-28T22:27:14.497Z,17.9674
2023-04-28T22:28:16.336Z,17.8302
2023-04-28T22:29:18.195Z,17.7520
2023-04-28T22:30:20.051Z,17.7731
2023-04-28T22:31:21.916Z,17.8582
2023-04-28T22:32:23.736Z,17.9496
2023-04-28T22:33:25.572Z,17.9777
2023-04-28T22:34:27.392Z,17.8015
2023-04-28T22:35:29.247Z,17.7429
2023-04-28T22:36:31.094Z,17.7664
2023-04-28T22:37:32.919Z,17.8159
2023-04-28T22:38:34.774Z,17.9036
2023-04-28T22:39:36.597Z,17.9898
2023-04-28T22:40:38.461Z,17.8629
2023-04-28T22:41:40.294Z,17.7403
2023-04-28T22:42:42.149Z,17.7520
2023-04-28T22:43:43.956Z,17.8224
2023-04-28T22:44:45.997Z,17.9196
2023-04-28T22:45:47.630Z,17.9981
2023-04-28T22:46:49.619Z,17.9442
2023-04-28T22:47:51.416Z,17.7809
2023-04-28T22:48:53.256Z,17.7489
2023-04-28T22:49:55.190Z,17.8044
2023-04-28T22:50:56.940Z,17.8680
2023-04-28T22:51:58.773Z,17.9633
2023-04-28T22:53:00.614Z,17.9773
2023-04-28T22:54:02.443Z,17.7805
2023-04-28T22:55:04.304Z,17.7325
2023-04-28T22:56:06.116Z,17.7795
2023-04-28T22:57:07.970Z,17.8413
2023-04-28T22:58:09.795Z,17.9214
2023-04-28T22:59:11.660Z,17.9865